Time;durP1;ratioP1;P1;durP2;ratioP2;P2;SDS_P1;SDS_P2;PMS_P1;PMS_P2;Temp;Humidity;BMP_temperature;BMP_pressure;BME280_temperature;BME280_humidity;BME280_pressure;Samples;Min_cycle;Max_cycle;Signal;HPM_P1;HPM_P2
2023/04/14 00:00:11;;;;;;;;;;;;;;;7.48;95.04;99415.84;5052023;28;20756;-57
2023/04/14 00:02:36;;;;;;;;;;;;;;;7.46;95.15;99424.75;5055046;28;19940;-57
2023/04/14 00:05:03;;;;;;;;;;;;;;;7.46;96.04;99428.22;5071650;28;19949;-57
2023/04/14 00:07:28;;;;;;;;;;;;;;;7.53;96.10;99423.63;5067978;28;19932;-57
2023/04/14 00:09:53;;;;;;;;;;;;;;;7.52;95.37;99437.78;5072450;28;19960;-57
2023/04/14 00:12:18;;;;;;;;;;;;;;;7.52;94.95;99441.31;5070522;28;20425;-57
2023/04/14 00:14:44;;;;;;;;;;;;;;;7.54;95.22;99451.84;5054236;28;19981;-57
2023/04/14 00:17:09;;;;;;;;;;;;;;;7.45;95.02;99446.81;5052333;28;19936;-57
2023/04/14 00:19:34;;;;;;;;;;;;;;;7.34;94.32;99439.19;5060086;28;19969;-57
2023/04/14 00:22:00;;;;;;;;;;;;;;;7.30;95.65;99448.13;5071946;28;19967;-57
2023/04/14 00:24:25;;;;;;;;;;;;;;;7.32;95.93;99438.38;5069078;28;19937;-58
2023/04/14 00:26:50;;;;;;;;;;;;;;;7.33;96.21;99428.66;5053359;28;20404;-58
2023/04/14 00:29:16;;;;;;;;;;;;;;;7.33;95.52;99432.16;5058376;28;19945;-58
2023/04/14 00:31:41;;;;;;;;;;;;;;;7.36;95.48;99424.16;5060309;28;20506;-57
2023/04/14 00:34:06;;;;;;;;;;;;;;;7.33;95.49;99420.72;5051043;28;19929;-58
2023/04/14 00:36:31;;;;;;;;;;;;;;;7.23;95.76;99413.97;5053002;28;19941;-58
2023/04/14 00:38:57;;;;;;;;;;;;;;;7.21;95.69;99410.50;5052404;28;19981;-57
2023/04/14 00:41:23;;;;;;;;;;;;;;;7.23;95.66;99420.09;5054350;28;19927;-57
2023/04/14 00:43:52;;;;;;;;;;;;;;;7.23;95.86;99420.09;5071213;28;19933;-57
2023/04/14 00:46:17;;;;;;;;;;;;;;;7.26;95.82;99421.81;5066551;28;19938;-57
2023/04/14 00:48:43;;;;;;;;;;;;;;;7.26;95.63;99417.38;5050299;28;20420;-57
2023/04/14 00:51:08;;;;;;;;;;;;;;;7.24;95.86;99421.84;5053651;28;19924;-57
2023/04/14 00:53:33;;;;;;;;;;;;;;;7.20;95.65;99420.19;5054189;28;19974;-57
2023/04/14 00:55:59;;;;;;;;;;;;;;;7.18;95.97;99421.16;5062476;28;19934;-57
2023/04/14 00:58:25;;;;;;;;;;;;;;;7.16;95.74;99422.97;5065631;28;19936;-57
2023/04/14 01:00:54;;;;;;;;;;;;;;;7.08;96.72;99435.53;5050922;28;19981;-57
2023/04/14 01:03:20;;;;;;;;;;;;;;;7.06;96.87;99437.34;5053657;28;19932;-57
2023/04/14 01:05:45;;;;;;;;;;;;;;;7.13;97.41;99433.63;5083162;28;20442;-57
2023/04/14 01:08:11;;;;;;;;;;;;;;;7.11;96.52;99436.34;5091586;28;19982;-57
2023/04/14 01:10:41;;;;;;;;;;;;;;;7.05;96.84;99436.47;5091511;28;19929;-57
2023/04/14 01:13:15;;;;;;;;;;;;;;;7.02;96.44;99439.22;5069885;28;19957;-57
2023/04/14 01:15:58;;;;;;;;;;;;;;;7.04;96.74;99440.03;5071185;28;19929;-57
2023/04/14 01:18:42;;;;;;;;;;;;;;;7.01;96.39;99440.13;5069246;28;20415;-57
2023/04/14 01:21:10;;;;;;;;;;;;;;;6.99;95.89;99441.94;5051531;28;19932;-57
2023/04/14 01:23:39;;;;;;;;;;;;;;;6.95;96.25;99439.44;5050730;28;20443;-57
2023/04/14 01:26:25;;;;;;;;;;;;;;;6.94;96.54;99438.56;5053589;28;19937;-54
2023/04/14 01:28:54;;;;;;;;;;;;;;;6.91;96.58;99448.34;5050894;28;20076;-55
2023/04/14 01:31:27;;;;;;;;;;;;;;;6.91;96.90;99443.94;5053217;28;19939;-55
2023/04/14 01:34:10;;;;;;;;;;;;;;;6.91;96.66;99451.00;5058927;28;20365;-55
2023/04/14 01:36:43;;;;;;;;;;;;;;;6.85;96.91;99446.75;5066346;28;20019;-57
2023/04/14 01:39:10;;;;;;;;;;;;;;;6.77;96.74;99446.06;5070643;28;19932;-57
2023/04/14 01:41:38;;;;;;;;;;;;;;;6.82;96.93;99460.03;5070394;28;19933;-57
2023/04/14 01:44:05;;;;;;;;;;;;;;;6.86;96.99;99460.81;5053244;28;19936;-58
2023/04/14 01:46:31;;;;;;;;;;;;;;;6.87;96.96;99455.50;5050556;28;20150;-58
2023/04/14 01:48:56;;;;;;;;;;;;;;;6.86;97.25;99466.97;5052605;28;19958;-57
2023/04/14 01:51:22;;;;;;;;;;;;;;;6.78;96.58;99468.09;5049712;28;19991;-57
2023/04/14 01:53:49;;;;;;;;;;;;;;;6.72;96.48;99470.91;5057114;28;20650;-58
2023/04/14 01:56:15;;;;;;;;;;;;;;;6.65;96.56;99471.03;5069456;28;19956;-58
2023/04/14 01:58:41;;;;;;;;;;;;;;;6.65;97.62;99462.25;5067001;28;20035;-57
2023/04/14 02:01:07;;;;;;;;;;;;;;;6.63;96.88;99461.44;5048491;28;19935;-58
2023/04/14 02:03:33;;;;;;;;;;;;;;;6.65;97.39;99467.53;5048417;28;19931;-56
2023/04/14 02:06:00;;;;;;;;;;;;;;;6.67;97.25;99471.88;5053059;28;20047;-56
2023/04/14 02:08:27;;;;;;;;;;;;;;;6.68;98.26;99473.63;5049386;28;19950;-56
2023/04/14 02:10:53;;;;;;;;;;;;;;;6.72;98.24;99473.53;5062575;28;19931;-56
2023/04/14 02:13:19;;;;;;;;;;;;;;;6.70;97.30;99476.22;5068379;28;20387;-56
2023/04/14 02:15:47;;;;;;;;;;;;;;;6.71;97.83;99477.94;5070135;28;19931;-56
2023/04/14 02:18:13;;;;;;;;;;;;;;;6.70;97.57;99477.06;5066733;28;20395;-56
2023/04/14 02:20:43;;;;;;;;;;;;;;;6.64;97.53;99476.34;5070056;28;19928;-56
2023/04/14 02:23:08;;;;;;;;;;;;;;;6.60;97.27;99475.59;5066498;28;19966;-56
2023/04/14 02:25:34;;;;;;;;;;;;;;;6.54;97.81;99474.84;5061074;28;19933;-56
2023/04/14 02:28:03;;;;;;;;;;;;;;;6.53;98.39;99474.00;5069683;28;20388;-56
2023/04/14 02:30:32;;;;;;;;;;;;;;;6.50;97.43;99478.50;5061351;28;19935;-56
2023/04/14 02:33:06;;;;;;;;;;;;;;;6.50;98.07;99478.50;5057451;28;19937;-56
2023/04/14 02:35:38;;;;;;;;;;;;;;;6.49;97.77;99487.34;5068337;28;20033;-55
2023/04/14 02:38:17;;;;;;;;;;;;;;;6.45;97.81;99481.25;5068838;28;20363;-56
2023/04/14 02:40:43;;;;;;;;;;;;;;;6.38;98.42;99484.06;5069659;28;19946;-56
2023/04/14 02:43:27;;;;;;;;;;;;;;;6.37;98.49;99490.28;5055339;28;20367;-56
2023/04/14 02:45:54;;;;;;;;;;;;;;;6.33;98.41;99499.16;5049659;28;19964;-56
2023/04/14 02:48:22;;;;;;;;;;;;;;;6.24;98.06;99500.25;5049684;28;19955;-56
2023/04/14 02:50:49;;;;;;;;;;;;;;;6.16;97.99;99498.72;5051799;28;20000;-56
2023/04/14 02:53:16;;;;;;;;;;;;;;;6.15;98.14;99507.50;5052590;28;20004;-56
2023/04/14 02:55:43;;;;;;;;;;;;;;;6.07;98.64;99498.91;5052025;28;19933;-56
2023/04/14 02:58:08;;;;;;;;;;;;;;;6.08;98.90;99506.78;5051923;28;20014;-56
2023/04/14 03:00:35;;;;;;;;;;;;;;;6.08;98.34;99504.16;5049462;28;20403;-56
2023/04/14 03:03:03;;;;;;;;;;;;;;;6.06;98.17;99507.75;5052883;28;19940;-56
2023/04/14 03:05:28;;;;;;;;;;;;;;;5.95;98.44;99504.44;5073101;28;19953;-56
2023/04/14 03:07:54;;;;;;;;;;;;;;;5.93;98.63;99509.75;5089894;28;20519;-57
2023/04/14 03:10:21;;;;;;;;;;;;;;;5.92;99.26;99510.69;5055250;28;20360;-55
2023/04/14 03:12:47;;;;;;;;;;;;;;;5.80;99.07;99510.06;5063614;28;19931;-56
2023/04/14 03:15:13;;;;;;;;;;;;;;;5.68;98.58;99505.03;5062358;28;19984;-56
2023/04/14 03:17:39;;;;;;;;;;;;;;;5.59;98.80;99505.22;5049489;28;19982;-56
2023/04/14 03:20:04;;;;;;;;;;;;;;;5.54;99.07;99507.06;5049399;28;19926;-56
2023/04/14 03:22:33;;;;;;;;;;;;;;;5.49;99.37;99504.53;5054523;28;20029;-56
2023/04/14 03:24:59;;;;;;;;;;;;;;;5.43;99.41;99504.66;5057532;28;19983;-56
2023/04/14 03:27:26;;;;;;;;;;;;;;;5.42;99.61;99507.34;5072806;28;19928;-56
2023/04/14 03:29:52;;;;;;;;;;;;;;;5.38;99.80;99506.53;5071970;28;20058;-56
2023/04/14 03:32:18;;;;;;;;;;;;;;;5.39;99.56;99503.84;5072449;28;20047;-56
2023/04/14 03:34:47;;;;;;;;;;;;;;;5.32;99.47;99502.25;5061404;28;20511;-57
2023/04/14 03:37:15;;;;;;;;;;;;;;;5.27;99.40;99497.97;5054998;28;19927;-56
2023/04/14 03:39:41;;;;;;;;;;;;;;;5.25;98.86;99510.31;5055156;28;20027;-56
2023/04/14 03:42:12;;;;;;;;;;;;;;;5.25;99.42;99503.25;5061469;28;20496;-56
2023/04/14 03:44:39;;;;;;;;;;;;;;;5.23;98.92;99507.72;5069551;28;19940;-56
2023/04/14 03:47:06;;;;;;;;;;;;;;;5.18;98.70;99520.09;5072612;28;19995;-56
2023/04/14 03:49:35;;;;;;;;;;;;;;;5.18;99.48;99512.19;5070887;28;19952;-56
2023/04/14 03:52:04;;;;;;;;;;;;;;;5.17;99.29;99517.50;5056309;28;19964;-56
2023/04/14 03:54:31;;;;;;;;;;;;;;;5.15;99.57;99527.19;5072604;28;20010;-56
2023/04/14 03:56:57;;;;;;;;;;;;;;;5.13;99.82;99511.41;5072506;28;19962;-56
2023/04/14 03:59:24;;;;;;;;;;;;;;;5.11;99.80;99502.66;5066591;28;20487;-56
2023/04/14 04:01:50;;;;;;;;;;;;;;;5.11;99.47;99517.59;5052270;28;19929;-56
2023/04/14 04:04:16;;;;;;;;;;;;;;;5.09;99.83;99515.00;5054368;28;19936;-56
2023/04/14 04:06:42;;;;;;;;;;;;;;;5.06;99.84;99520.31;5070448;28;19917;-56
2023/04/14 04:09:08;;;;;;;;;;;;;;;5.01;99.56;99526.56;5071656;28;19947;-56
2023/04/14 04:11:34;;;;;;;;;;;;;;;4.95;99.91;99519.66;5059504;28;20061;-56
2023/04/14 04:14:01;;;;;;;;;;;;;;;4.93;99.76;99518.81;5072278;28;19936;-56
2023/04/14 04:16:27;;;;;;;;;;;;;;;4.88;99.56;99525.06;5063904;28;20414;-56
2023/04/14 04:18:53;;;;;;;;;;;;;;;4.80;100.00;99522.56;5062814;28;19927;-56
2023/04/14 04:21:19;;;;;;;;;;;;;;;4.76;99.67;99525.28;5070976;28;19937;-56
2023/04/14 04:23:51;;;;;;;;;;;;;;;4.72;100.00;99524.47;5054186;28;19931;-56
2023/04/14 04:26:17;;;;;;;;;;;;;;;4.76;100.00;99526.13;5052321;28;19924;-56
2023/04/14 04:28:42;;;;;;;;;;;;;;;4.78;99.99;99528.75;5054523;28;20007;-55
2023/04/14 04:31:08;;;;;;;;;;;;;;;4.81;100.00;99533.97;5051907;28;19962;-56
2023/04/14 04:33:34;;;;;;;;;;;;;;;4.85;100.00;99531.25;5065166;28;20005;-56
2023/04/14 04:36:00;;;;;;;;;;;;;;;4.86;100.00;99530.34;5071028;28;19936;-56
2023/04/14 04:38:25;;;;;;;;;;;;;;;4.86;100.00;99527.72;5054673;28;19937;-56
2023/04/14 04:40:50;;;;;;;;;;;;;;;4.90;100.00;99529.41;5051709;28;20314;-56
2023/04/14 04:43:17;;;;;;;;;;;;;;;4.95;100.00;99538.09;5066647;28;19931;-56
2023/04/14 04:45:47;;;;;;;;;;;;;;;4.96;100.00;99542.47;5071291;28;19928;-56
2023/04/14 04:48:12;;;;;;;;;;;;;;;5.03;100.00;99535.31;5067620;28;20525;-56
2023/04/14 04:50:38;;;;;;;;;;;;;;;5.10;100.00;99536.97;5051129;28;19931;-56
2023/04/14 04:53:03;;;;;;;;;;;;;;;5.14;100.00;99542.13;5048635;28;19937;-56
2023/04/14 04:55:28;;;;;;;;;;;;;;;5.18;100.00;99541.19;5053393;28;19933;-56
2023/04/14 04:57:54;;;;;;;;;;;;;;;5.21;100.00;99546.41;5053413;28;19955;-56
2023/04/14 05:00:21;;;;;;;;;;;;;;;5.26;100.00;99549.81;5051108;28;20643;-57
2023/04/14 05:02:47;;;;;;;;;;;;;;;5.33;100.00;99551.47;5066860;28;20025;-55
2023/04/14 05:05:12;;;;;;;;;;;;;;;5.39;100.00;99546.06;5079593;28;20043;-56
2023/04/14 05:07:37;;;;;;;;;;;;;;;5.45;100.00;99550.34;5056894;28;19996;-56
2023/04/14 05:10:02;;;;;;;;;;;;;;;5.48;100.00;99546.78;5049451;28;19954;-56
2023/04/14 05:12:28;;;;;;;;;;;;;;;5.53;100.00;99558.09;5058885;28;19935;-56
2023/04/14 05:14:53;;;;;;;;;;;;;;;5.57;100.00;99551.88;5052562;28;19985;-56
2023/04/14 05:17:18;;;;;;;;;;;;;;;5.66;100.00;99551.69;5050655;28;19939;-55
2023/04/14 05:19:43;;;;;;;;;;;;;;;5.72;100.00;99564.72;5052914;28;19934;-55
2023/04/14 05:22:09;;;;;;;;;;;;;;;5.77;100.00;99560.22;5050752;28;19983;-56
2023/04/14 05:24:34;;;;;;;;;;;;;;;5.91;100.00;99563.50;5050793;28;19930;-56
2023/04/14 05:27:00;;;;;;;;;;;;;;;6.48;100.00;99556.91;5050750;28;20033;-56
2023/04/14 05:29:26;;;;;;;;;;;;;;;7.18;100.00;99572.75;5055726;28;20620;-56
2023/04/14 05:31:51;;;;;;;;;;;;;;;7.60;100.00;99563.69;5050911;28;20021;-56
2023/04/14 05:34:16;;;;;;;;;;;;;;;8.26;100.00;99565.28;5050613;28;20622;-56
2023/04/14 05:36:41;;;;;;;;;;;;;;;8.68;92.77;99566.63;5050419;28;19933;-56
2023/04/14 05:39:07;;;;;;;;;;;;;;;8.81;88.57;99568.81;5052772;28;19935;-55
2023/04/14 05:41:32;;;;;;;;;;;;;;;9.09;86.34;99566.13;5053698;28;19998;-56
2023/04/14 05:43:57;;;;;;;;;;;;;;;9.22;85.62;99572.75;5069672;28;19930;-56
2023/04/14 05:46:22;;;;;;;;;;;;;;;9.68;82.15;99572.88;5059287;28;20004;-56
2023/04/14 05:48:48;;;;;;;;;;;;;;;10.04;82.20;99566.19;5059865;28;19998;-56
2023/04/14 05:51:13;;;;;;;;;;;;;;;10.54;78.10;99567.78;5066193;28;19997;-56
2023/04/14 05:53:38;;;;;;;;;;;;;;;10.73;76.32;99567.06;5069349;28;20360;-56
2023/04/14 05:56:04;;;;;;;;;;;;;;;11.35;73.74;99568.84;5070104;28;19960;-56
2023/04/14 05:58:29;;;;;;;;;;;;;;;12.04;69.29;99562.25;5066446;28;20429;-56
2023/04/14 06:00:54;;;;;;;;;;;;;;;12.52;66.35;99573.28;5070239;28;20053;-56
2023/04/14 06:03:20;;;;;;;;;;;;;;;13.21;62.31;99572.53;5062342;28;19940;-56
2023/04/14 06:05:47;;;;;;;;;;;;;;;13.56;59.97;99569.91;5078480;28;19950;-56
2023/04/14 06:08:12;;;;;;;;;;;;;;;14.13;58.08;99564.13;5090272;28;19999;-56
2023/04/14 06:10:37;;;;;;;;;;;;;;;14.61;55.37;99566.84;5076311;28;19950;-56
2023/04/14 06:13:02;;;;;;;;;;;;;;;14.72;55.01;99575.13;5065596;28;19941;-56
2023/04/14 06:15:28;;;;;;;;;;;;;;;14.32;55.52;99578.25;5066170;28;19943;-56
2023/04/14 06:17:54;;;;;;;;;;;;;;;13.99;56.82;99569.34;5050051;28;19946;-56
2023/04/14 06:20:20;;;;;;;;;;;;;;;13.83;57.88;99573.78;5064085;28;20033;-56
2023/04/14 06:22:46;;;;;;;;;;;;;;;13.97;58.27;99568.59;5054212;28;19947;-56
2023/04/14 06:25:11;;;;;;;;;;;;;;;15.05;56.71;99564.28;5050178;28;19932;-56
2023/04/14 06:27:36;;;;;;;;;;;;;;;15.01;55.87;99565.41;5050303;28;19917;-56
2023/04/14 06:30:02;;;;;;;;;;;;;;;14.25;55.95;99566.16;5064157;28;19982;-56
2023/04/14 06:32:27;;;;;;;;;;;;;;;14.55;57.84;99552.94;5054608;28;20049;-56
2023/04/14 06:34:52;;;;;;;;;;;;;;;15.41;56.16;99551.44;5056758;28;19927;-56
2023/04/14 06:37:17;;;;;;;;;;;;;;;16.51;52.73;99555.28;5068774;28;19952;-56
2023/04/14 06:39:43;;;;;;;;;;;;;;;16.74;50.29;99555.53;5051971;28;19913;-56
2023/04/14 06:42:11;;;;;;;;;;;;;;;17.27;49.07;99541.25;5058508;28;20432;-56
2023/04/14 06:44:37;;;;;;;;;;;;;;;17.34;48.76;99541.69;5059552;28;19928;-56
2023/04/14 06:47:02;;;;;;;;;;;;;;;16.89;49.68;99556.38;5055922;28;19912;-56
2023/04/14 06:49:28;;;;;;;;;;;;;;;16.27;50.56;99548.78;5067663;28;20002;-56
2023/04/14 06:51:53;;;;;;;;;;;;;;;16.22;51.40;99551.75;5049643;28;20011;-56
2023/04/14 06:54:18;;;;;;;;;;;;;;;16.13;52.29;99546.13;5059708;28;19935;-56
2023/04/14 06:56:44;;;;;;;;;;;;;;;16.00;52.56;99546.00;5049884;28;20712;-56
2023/04/14 06:59:09;;;;;;;;;;;;;;;16.17;51.08;99543.13;5053664;28;19935;-56
2023/04/14 07:01:35;;;;;;;;;;;;;;;16.17;51.43;99544.94;5053574;28;20003;-56
2023/04/14 07:04:02;;;;;;;;;;;;;;;16.00;52.75;99539.75;5056161;28;20497;-56
2023/04/14 07:06:27;;;;;;;;;;;;;;;15.82;52.43;99536.41;5056010;28;19927;-56
2023/04/14 07:08:54;;;;;;;;;;;;;;;15.42;53.78;99535.28;5052464;28;19952;-56
2023/04/14 07:11:20;;;;;;;;;;;;;;;15.09;54.56;99528.34;5060222;28;20011;-56
2023/04/14 07:13:45;;;;;;;;;;;;;;;15.33;54.28;99524.22;5071866;28;20059;-56
2023/04/14 07:16:10;;;;;;;;;;;;;;;14.90;54.65;99525.88;5071165;28;19934;-56
2023/04/14 07:18:36;;;;;;;;;;;;;;;14.80;56.33;99526.47;5054920;28;19947;-56
2023/04/14 07:21:01;;;;;;;;;;;;;;;15.05;56.47;99516.94;5052520;28;20333;-56
2023/04/14 07:23:27;;;;;;;;;;;;;;;15.36;54.87;99518.66;5055105;28;19921;-56
2023/04/14 07:25:53;;;;;;;;;;;;;;;15.49;54.04;99512.50;5053251;28;19916;-56
2023/04/14 07:28:19;;;;;;;;;;;;;;;15.70;54.47;99508.50;5053453;28;20395;-56
2023/04/14 07:30:44;;;;;;;;;;;;;;;15.44;53.34;99508.38;5054247;28;19916;-56
2023/04/14 07:33:11;;;;;;;;;;;;;;;15.26;54.05;99510.31;5052081;28;20348;-56
2023/04/14 07:35:36;;;;;;;;;;;;;;;15.43;55.65;99509.34;5051901;28;20007;-56
2023/04/14 07:38:02;;;;;;;;;;;;;;;16.05;53.62;99505.47;5054406;28;20007;-55
2023/04/14 07:40:27;;;;;;;;;;;;;;;16.16;53.61;99508.34;5054973;28;19916;-55
2023/04/14 07:42:52;;;;;;;;;;;;;;;16.42;53.07;99502.19;5067900;28;19912;-55
2023/04/14 07:45:17;;;;;;;;;;;;;;;16.86;51.86;99500.16;5072753;28;19920;-56
2023/04/14 07:47:43;;;;;;;;;;;;;;;16.93;51.29;99488.88;5065583;28;19917;-56
2023/04/14 07:50:08;;;;;;;;;;;;;;;17.11;50.61;99489.50;5051559;28;19928;-56
2023/04/14 07:52:34;;;;;;;;;;;;;;;17.18;52.17;99489.94;5052855;28;20372;-56
2023/04/14 07:54:59;;;;;;;;;;;;;;;17.76;50.54;99487.69;5070225;28;19920;-56
2023/04/14 07:57:24;;;;;;;;;;;;;;;17.45;49.04;99485.34;5071646;28;19952;-56
2023/04/14 07:59:49;;;;;;;;;;;;;;;17.73;50.05;99491.44;5071939;28;19920;-56
2023/04/14 08:02:16;;;;;;;;;;;;;;;17.92;48.23;99491.03;5055542;28;19928;-56
2023/04/14 08:04:42;;;;;;;;;;;;;;;17.98;47.58;99486.06;5062202;28;20369;-56
2023/04/14 08:07:07;;;;;;;;;;;;;;;18.16;48.30;99490.13;5065876;28;20062;-56
2023/04/14 08:09:33;;;;;;;;;;;;;;;18.43;47.80;99489.16;5050916;28;19952;-56
2023/04/14 08:11:58;;;;;;;;;;;;;;;18.65;46.54;99489.31;5058428;28;20001;-56
2023/04/14 08:14:24;;;;;;;;;;;;;;;18.44;46.01;99488.16;5067427;28;19964;-56
2023/04/14 08:16:49;;;;;;;;;;;;;;;18.44;47.50;99485.47;5071147;28;20088;-56
2023/04/14 08:19:15;;;;;;;;;;;;;;;18.80;46.74;99480.94;5064020;28;19965;-56
2023/04/14 08:21:40;;;;;;;;;;;;;;;19.22;46.39;99479.53;5051978;28;20011;-56
2023/04/14 08:24:06;;;;;;;;;;;;;;;19.47;44.91;99469.47;5051923;28;20782;-56
2023/04/14 08:26:31;;;;;;;;;;;;;;;19.71;44.21;99482.03;5069055;28;19993;-56
2023/04/14 08:28:56;;;;;;;;;;;;;;;19.83;43.06;99475.69;5071880;28;20432;-56
2023/04/14 08:31:22;;;;;;;;;;;;;;;19.62;44.01;99483.59;5068589;28;20349;-56
2023/04/14 08:33:48;;;;;;;;;;;;;;;19.43;43.60;99477.91;5071156;28;19916;-56
2023/04/14 08:36:13;;;;;;;;;;;;;;;19.25;43.71;99476.59;5069639;28;19954;-56
2023/04/14 08:38:38;;;;;;;;;;;;;;;19.57;44.99;99480.44;5053881;28;19917;-56
2023/04/14 08:41:06;;;;;;;;;;;;;;;19.97;43.82;99483.53;5051169;28;19917;-57
2023/04/14 08:43:31;;;;;;;;;;;;;;;20.21;42.78;99484.31;5052771;28;20635;-56
2023/04/14 08:45:56;;;;;;;;;;;;;;;20.02;40.80;99484.03;5054632;28;20034;-57
2023/04/14 08:48:27;;;;;;;;;;;;;;;20.36;41.34;99492.03;5051695;28;19949;-57
2023/04/14 08:51:03;;;;;;;;;;;;;;;20.46;39.84;99484.91;5051842;28;19931;-57
2023/04/14 08:53:29;;;;;;;;;;;;;;;20.66;39.87;99483.28;5053264;28;19930;-57
2023/04/14 08:55:56;;;;;;;;;;;;;;;20.41;40.66;99479.00;5067844;28;19936;-57
2023/04/14 08:58:21;;;;;;;;;;;;;;;20.50;41.07;99483.69;5066931;28;20024;-57
2023/04/14 09:00:46;;;;;;;;;;;;;;;20.92;41.85;99480.13;5067030;28;20407;-57
2023/04/14 09:03:12;;;;;;;;;;;;;;;21.05;40.87;99469.22;5050568;28;19927;-58
2023/04/14 09:05:39;;;;;;;;;;;;;;;20.98;42.20;99475.25;5073410;28;19951;-58
2023/04/14 09:08:04;;;;;;;;;;;;;;;21.40;40.22;99468.94;5053224;28;19987;-58
2023/04/14 09:10:30;;;;;;;;;;;;;;;21.74;39.46;99473.16;5051219;28;20368;-57
2023/04/14 09:12:56;;;;;;;;;;;;;;;21.40;38.02;99455.41;5053073;28;19952;-57
2023/04/14 09:15:23;;;;;;;;;;;;;;;21.52;38.71;99463.31;5050220;28;19932;-58
2023/04/14 09:17:48;;;;;;;;;;;;;;;21.53;39.49;99459.59;5052113;28;19935;-57
2023/04/14 09:20:14;;;;;;;;;;;;;;;21.48;36.61;99461.00;5066759;28;19931;-58
2023/04/14 09:22:39;;;;;;;;;;;;;;;20.95;38.76;99463.66;5069823;28;20015;-57
2023/04/14 09:25:06;;;;;;;;;;;;;;;21.02;38.07;99457.78;5069935;28;19958;-57
2023/04/14 09:27:32;;;;;;;;;;;;;;;20.87;39.76;99449.91;5063423;28;20380;-57
2023/04/14 09:29:58;;;;;;;;;;;;;;;21.41;40.13;99454.38;5050833;28;19958;-58
2023/04/14 09:32:24;;;;;;;;;;;;;;;22.09;39.57;99447.41;5050806;28;19970;-57
2023/04/14 09:34:52;;;;;;;;;;;;;;;22.68;37.13;99449.34;5069592;28;19954;-58
2023/04/14 09:37:18;;;;;;;;;;;;;;;22.65;36.03;99445.06;5069378;28;20580;-57
2023/04/14 09:39:51;;;;;;;;;;;;;;;22.65;37.72;99436.91;5069650;28;19916;-58
2023/04/14 09:42:17;;;;;;;;;;;;;;;22.89;37.72;99434.69;5065490;28;20599;-58
2023/04/14 09:44:55;;;;;;;;;;;;;;;22.32;36.10;99447.22;5069262;28;19959;-57
2023/04/14 09:47:21;;;;;;;;;;;;;;;22.54;36.63;99439.75;5059606;28;19917;-58
2023/04/14 09:49:56;;;;;;;;;;;;;;;22.27;36.00;99444.94;5050420;28;20445;-57
2023/04/14 09:52:22;;;;;;;;;;;;;;;22.07;37.52;99443.13;5057063;28;19938;-58
2023/04/14 09:54:53;;;;;;;;;;;;;;;21.95;36.17;99444.22;5049651;28;20327;-58
2023/04/14 09:57:25;;;;;;;;;;;;;;;22.10;37.40;99441.03;5051361;28;19959;-58
2023/04/14 09:59:50;;;;;;;;;;;;;;;22.06;38.10;99446.81;5049607;28;19935;-57
2023/04/14 10:02:17;;;;;;;;;;;;;;;22.02;35.52;99442.69;5052045;28;20316;-58
2023/04/14 10:04:43;;;;;;;;;;;;;;;22.10;36.86;99432.91;5071313;28;19950;-58
2023/04/14 10:07:10;;;;;;;;;;;;;;;21.97;36.54;99434.09;5068614;28;19949;-58
2023/04/14 10:09:36;;;;;;;;;;;;;;;22.10;35.85;99426.59;5068752;28;19969;-57
2023/04/14 10:12:12;;;;;;;;;;;;;;;22.07;37.12;99425.00;5068015;28;20275;-57
2023/04/14 10:14:38;;;;;;;;;;;;;;;22.45;36.17;99420.72;5069811;28;19926;-57
2023/04/14 10:17:03;;;;;;;;;;;;;;;22.35;35.93;99415.28;5069217;28;20406;-57
2023/04/14 10:19:29;;;;;;;;;;;;;;;22.45;36.78;99410.75;5060359;28;19927;-57
2023/04/14 10:21:56;;;;;;;;;;;;;;;22.44;36.09;99405.47;5059037;28;19924;-57
2023/04/14 10:24:22;;;;;;;;;;;;;;;22.57;35.37;99406.09;5069142;28;20383;-57
2023/04/14 10:26:48;;;;;;;;;;;;;;;21.52;35.09;99411.00;5054538;28;19964;-57
2023/04/14 10:29:14;;;;;;;;;;;;;;;21.68;36.67;99408.72;5049004;28;19994;-57
2023/04/14 10:31:41;;;;;;;;;;;;;;;21.50;36.44;99404.91;5052076;28;19921;-57
2023/04/14 10:34:10;;;;;;;;;;;;;;;21.59;37.60;99404.09;5048993;28;20424;-57
2023/04/14 10:36:36;;;;;;;;;;;;;;;22.10;37.79;99403.09;5051906;28;19997;-57
2023/04/14 10:39:03;;;;;;;;;;;;;;;22.86;39.94;99394.28;5053140;28;19955;-58
2023/04/14 10:41:55;;;;;;;;;;;;;;;23.43;38.41;99394.28;5069323;28;20687;-58
2023/04/14 10:44:24;;;;;;;;;;;;;;;23.64;34.19;99390.53;5068267;28;20022;-57
2023/04/14 10:46:50;;;;;;;;;;;;;;;23.35;33.31;99388.72;5066546;28;19921;-58
2023/04/14 10:49:16;;;;;;;;;;;;;;;23.15;33.85;99386.13;5060693;28;20019;-57
2023/04/14 10:51:43;;;;;;;;;;;;;;;22.63;33.90;99384.72;5048693;28;19912;-57
2023/04/14 10:54:18;;;;;;;;;;;;;;;23.06;36.24;99379.69;5049011;28;19913;-57
2023/04/14 10:57:14;;;;;;;;;;;;;;;23.06;32.90;99378.88;5050888;28;20483;-58
2023/04/14 10:59:42;;;;;;;;;;;;;;;22.51;32.97;99369.53;5044183;28;19959;-57
2023/04/14 11:02:26;;;;;;;;;;;;;;;21.90;34.81;99378.75;5050404;28;20349;-56
2023/04/14 11:05:07;;;;;;;;;;;;;;;22.49;34.07;99374.22;5063313;28;19956;-56
2023/04/14 11:07:57;;;;;;;;;;;;;;;22.32;33.08;99372.22;5089862;28;19926;-57
2023/04/14 11:10:23;;;;;;;;;;;;;;;21.98;35.61;99368.09;5071716;28;19928;-57
2023/04/14 11:12:53;;;;;;;;;;;;;;;22.30;35.10;99357.06;5069696;28;19946;-56
2023/04/14 11:15:18;;;;;;;;;;;;;;;22.86;34.43;99355.47;5069671;28;19923;-56
2023/04/14 11:17:43;;;;;;;;;;;;;;;23.08;32.84;99358.72;5052535;28;19927;-57
2023/04/14 11:20:13;;;;;;;;;;;;;;;23.35;31.88;99347.16;5052034;28;19970;-57
2023/04/14 11:22:43;;;;;;;;;;;;;;;23.37;32.61;99346.00;5067335;28;19977;-57
2023/04/14 11:25:13;;;;;;;;;;;;;;;23.57;35.65;99338.66;5069192;28;19920;-56
2023/04/14 11:27:38;;;;;;;;;;;;;;;23.80;33.17;99333.72;5068837;28;20312;-57
2023/04/14 11:30:08;;;;;;;;;;;;;;;23.63;31.61;99334.47;5062812;28;19986;-57
2023/04/14 11:32:59;;;;;;;;;;;;;;;23.79;31.51;99332.84;5069067;28;19973;-57
2023/04/14 11:35:28;;;;;;;;;;;;;;;23.37;31.07;99334.28;5066019;28;19917;-57
2023/04/14 11:37:54;;;;;;;;;;;;;;;23.75;35.48;99333.28;5050692;28;19947;-57
2023/04/14 11:40:20;;;;;;;;;;;;;;;24.10;34.08;99314.44;5049162;28;20026;-57
2023/04/14 11:42:46;;;;;;;;;;;;;;;23.38;32.71;99315.13;5051608;28;20000;-57
2023/04/14 11:45:14;;;;;;;;;;;;;;;23.84;32.43;99322.38;5051698;28;19931;-57
2023/04/14 11:47:45;;;;;;;;;;;;;;;23.25;29.91;99313.69;5052489;28;19943;-57
2023/04/14 11:50:10;;;;;;;;;;;;;;;23.74;32.46;99318.03;5052594;28;19925;-57
2023/04/14 11:52:36;;;;;;;;;;;;;;;24.66;32.17;99310.44;5055375;28;19978;-57
2023/04/14 11:55:01;;;;;;;;;;;;;;;24.93;30.76;99295.91;5052477;28;19927;-57
2023/04/14 11:57:27;;;;;;;;;;;;;;;25.01;32.24;99293.25;5061002;28;19994;-57
2023/04/14 11:59:54;;;;;;;;;;;;;;;25.30;30.70;99293.81;5072426;28;20273;-57
2023/04/14 12:02:20;;;;;;;;;;;;;;;23.86;28.77;99290.50;5071566;28;19969;-57
2023/04/14 12:04:47;;;;;;;;;;;;;;;23.80;31.40;99287.53;5076185;28;19982;-57
2023/04/14 12:07:13;;;;;;;;;;;;;;;23.76;29.92;99297.84;5092621;28;19916;-57
2023/04/14 12:09:48;;;;;;;;;;;;;;;23.37;30.28;99291.72;5092396;28;19972;-57
2023/04/14 12:12:15;;;;;;;;;;;;;;;23.81;33.44;99289.22;5080919;28;20577;-57
2023/04/14 12:14:42;;;;;;;;;;;;;;;24.36;31.50;99280.06;5071763;28;19942;-57
2023/04/14 12:17:08;;;;;;;;;;;;;;;24.94;30.04;99281.31;5071384;28;20435;-58
2023/04/14 12:19:36;;;;;;;;;;;;;;;24.72;27.83;99280.94;5054659;28;19984;-58
2023/04/14 12:22:02;;;;;;;;;;;;;;;24.54;26.62;99272.75;5052111;28;19937;-57
2023/04/14 12:24:34;;;;;;;;;;;;;;;24.38;29.00;99267.19;5064272;28;20068;-57
2023/04/14 12:27:00;;;;;;;;;;;;;;;24.57;30.47;99272.44;5071793;28;20005;-57
2023/04/14 12:29:25;;;;;;;;;;;;;;;24.03;28.19;99269.84;5071649;28;19942;-57
2023/04/14 12:31:52;;;;;;;;;;;;;;;24.20;30.82;99264.41;5071868;28;19962;-57
2023/04/14 12:34:23;;;;;;;;;;;;;;;24.00;30.64;99262.00;5058253;28;20422;-57
2023/04/14 12:36:50;;;;;;;;;;;;;;;23.55;29.13;99256.50;5051992;28;19927;-57
2023/04/14 12:39:15;;;;;;;;;;;;;;;23.18;30.80;99256.44;5051946;28;19943;-57
2023/04/14 12:41:40;;;;;;;;;;;;;;;23.54;31.44;99254.78;5061089;28;20003;-57
2023/04/14 12:44:19;;;;;;;;;;;;;;;24.05;31.23;99244.22;5053897;28;19949;-57
2023/04/14 12:46:54;;;;;;;;;;;;;;;24.18;28.38;99249.28;5051633;28;19938;-57
2023/04/14 12:49:32;;;;;;;;;;;;;;;24.03;26.90;99246.25;5066125;28;20019;-57